createdAt,value
2018-06-14T00:00:10.700Z,6.07
2018-06-14T00:02:37.844Z,5.20
2018-06-14T00:05:05.042Z,5.30
2018-06-14T00:07:32.259Z,5.03
2018-06-14T00:09:59.380Z,5.33
2018-06-14T00:12:26.533Z,5.87
2018-06-14T00:14:53.696Z,5.73
2018-06-14T00:17:20.877Z,4.90
2018-06-14T00:19:48.013Z,5.47
2018-06-14T00:22:15.167Z,5.00
2018-06-14T00:24:42.297Z,4.70
2018-06-14T00:27:09.395Z,4.70
2018-06-14T00:29:36.546Z,5.30
2018-06-14T00:32:03.729Z,5.23
2018-06-14T00:34:30.833Z,4.50
2018-06-14T00:37:04.848Z,4.30
2018-06-14T00:39:32.006Z,4.60
2018-06-14T00:41:59.151Z,4.93
2018-06-14T00:44:26.301Z,5.00
2018-06-14T00:46:53.425Z,6.07
2018-06-14T00:49:20.596Z,5.80
2018-06-14T00:51:47.720Z,5.60
2018-06-14T00:54:14.864Z,5.40
2018-06-14T00:56:53.580Z,5.40
2018-06-14T00:59:20.774Z,6.10
2018-06-14T01:01:48.296Z,5.67
2018-06-14T01:04:15.405Z,6.20
2018-06-14T01:06:42.684Z,5.53
2018-06-14T01:09:10.380Z,5.50
2018-06-14T01:11:37.701Z,5.80
2018-06-14T01:14:05.017Z,6.10
2018-06-14T01:16:32.270Z,6.10
2018-06-14T01:18:59.394Z,5.90
2018-06-14T01:21:26.549Z,6.57
2018-06-14T01:23:53.713Z,6.10
2018-06-14T01:26:20.903Z,7.20
2018-06-14T01:28:48.046Z,5.83
2018-06-14T01:31:15.193Z,5.63
2018-06-14T01:33:42.346Z,5.67
2018-06-14T01:36:09.478Z,5.87
2018-06-14T01:38:36.636Z,6.47
2018-06-14T01:41:03.752Z,6.70
2018-06-14T01:43:30.969Z,6.03
2018-06-14T01:45:58.132Z,6.07
2018-06-14T01:48:25.248Z,6.20
2018-06-14T01:50:52.356Z,5.77
2018-06-14T01:53:19.508Z,6.17
2018-06-14T01:55:46.628Z,6.13
2018-06-14T01:58:13.805Z,6.23
2018-06-14T02:00:40.964Z,6.70
2018-06-14T02:03:08.093Z,5.70
2018-06-14T02:05:35.279Z,5.60
2018-06-14T02:08:02.364Z,5.00
2018-06-14T02:10:29.500Z,5.13
2018-06-14T02:12:56.564Z,5.70
2018-06-14T02:15:23.721Z,6.53
2018-06-14T02:17:50.918Z,7.17
2018-06-14T02:20:18.033Z,6.90
2018-06-14T02:22:45.097Z,6.73
2018-06-14T02:25:12.284Z,7.33
2018-06-14T02:27:39.476Z,6.57
2018-06-14T02:30:06.704Z,5.80
2018-06-14T02:32:33.879Z,5.83
2018-06-14T02:35:01.040Z,7.33
2018-06-14T02:37:28.227Z,6.00
2018-06-14T02:39:55.461Z,6.67
2018-06-14T02:42:22.617Z,6.90
2018-06-14T02:44:49.743Z,6.63
2018-06-14T02:47:16.837Z,6.83
2018-06-14T02:49:43.976Z,6.60
2018-06-14T02:52:11.125Z,7.10
2018-06-14T02:54:38.261Z,6.10
2018-06-14T02:57:05.400Z,6.83
2018-06-14T02:59:32.612Z,6.33
2018-06-14T03:01:59.717Z,5.90
2018-06-14T03:04:26.864Z,6.10
2018-06-14T03:06:53.969Z,6.47
2018-06-14T03:09:21.089Z,7.83
2018-06-14T03:11:48.293Z,7.00
2018-06-14T03:14:15.464Z,6.93
2018-06-14T03:16:42.649Z,5.50
2018-06-14T03:19:09.761Z,7.07
2018-06-14T03:21:36.905Z,6.63
2018-06-14T03:24:04.137Z,5.80
2018-06-14T03:26:31.301Z,5.97
2018-06-14T03:28:58.449Z,5.77
2018-06-14T03:31:25.564Z,7.20
2018-06-14T03:33:52.718Z,6.13
2018-06-14T03:36:19.925Z,6.10
2018-06-14T03:38:47.135Z,5.17
2018-06-14T03:41:14.309Z,5.47
2018-06-14T03:43:41.476Z,6.20
2018-06-14T03:46:08.704Z,5.80
2018-06-14T03:48:35.847Z,6.90
2018-06-14T03:51:02.974Z,6.47
2018-06-14T03:53:30.096Z,5.80
2018-06-14T03:55:57.189Z,6.73
2018-06-14T03:58:24.328Z,6.63
2018-06-14T04:00:51.493Z,6.70
2018-06-14T04:03:18.656Z,7.00
2018-06-14T04:05:45.809Z,5.50
2018-06-14T04:08:12.907Z,5.30
2018-06-14T04:10:40.038Z,6.50
2018-06-14T04:13:07.139Z,8.00
2018-06-14T04:15:34.301Z,6.27
2018-06-14T04:18:02.367Z,5.57
2018-06-14T04:20:30.352Z,5.60
2018-06-14T04:22:57.708Z,5.70
2018-06-14T04:25:24.808Z,6.43
2018-06-14T04:27:51.936Z,5.63
2018-06-14T04:30:19.105Z,6.03
2018-06-14T04:32:46.260Z,5.50
2018-06-14T04:35:13.387Z,5.80
2018-06-14T04:37:40.555Z,6.53
2018-06-14T04:40:07.733Z,6.03
2018-06-14T04:42:34.887Z,6.43
2018-06-14T04:45:02.024Z,5.97
2018-06-14T04:47:29.150Z,5.90
2018-06-14T04:49:56.272Z,6.23
2018-06-14T04:52:23.444Z,5.67
2018-06-14T04:54:50.628Z,6.40
2018-06-14T04:57:18.272Z,6.00
2018-06-14T04:59:45.441Z,6.10
2018-06-14T05:02:12.588Z,6.30
2018-06-14T05:04:39.752Z,6.50
2018-06-14T05:07:06.927Z,6.00
2018-06-14T05:09:34.074Z,5.63
2018-06-14T05:12:01.188Z,6.10
2018-06-14T05:14:28.352Z,6.40
2018-06-14T05:16:55.567Z,6.63
2018-06-14T05:19:22.693Z,6.60
2018-06-14T05:21:49.900Z,6.47
2018-06-14T05:24:17.021Z,7.20
2018-06-14T05:26:44.150Z,6.70
2018-06-14T05:29:11.282Z,6.50
2018-06-14T05:31:38.441Z,6.73
2018-06-14T05:34:05.699Z,6.73
2018-06-14T05:36:32.856Z,6.50
2018-06-14T05:39:00.034Z,6.43
2018-06-14T05:41:27.259Z,6.50
2018-06-14T05:43:54.401Z,7.37
2018-06-14T05:46:21.533Z,7.97
2018-06-14T05:48:48.777Z,6.93
2018-06-14T05:51:15.964Z,6.50
2018-06-14T05:53:43.108Z,6.57
2018-06-14T05:56:10.294Z,6.73
2018-06-14T05:58:37.437Z,6.67
2018-06-14T06:01:04.588Z,6.53
2018-06-14T06:03:32.523Z,5.43
2018-06-14T06:05:59.707Z,6.50
2018-06-14T06:08:26.925Z,6.00
2018-06-14T06:10:54.120Z,5.50
2018-06-14T06:13:21.351Z,6.03
2018-06-14T06:15:48.502Z,6.00
2018-06-14T06:18:15.653Z,6.93
2018-06-14T06:20:42.805Z,6.97
2018-06-14T06:23:09.974Z,6.77
2018-06-14T06:25:37.105Z,7.93
2018-06-14T06:28:04.363Z,7.33
2018-06-14T06:30:31.551Z,6.90
2018-06-14T06:32:58.982Z,5.73
2018-06-14T06:35:26.117Z,7.13
2018-06-14T06:37:53.568Z,7.40
2018-06-14T06:40:20.731Z,7.43
2018-06-14T06:42:47.874Z,6.77
2018-06-14T06:45:15.056Z,7.50
2018-06-14T06:47:42.188Z,7.50
2018-06-14T06:50:09.368Z,7.00
2018-06-14T06:52:36.474Z,7.07
2018-06-14T06:55:03.825Z,7.63
2018-06-14T06:57:30.969Z,6.90
2018-06-14T06:59:58.101Z,6.67
2018-06-14T07:02:25.213Z,6.63
2018-06-14T07:04:52.352Z,6.50
2018-06-14T07:07:19.513Z,5.63
2018-06-14T07:09:46.642Z,6.00
2018-06-14T07:12:13.807Z,5.80
2018-06-14T07:14:40.972Z,8.13
2018-06-14T07:17:08.197Z,6.53
2018-06-14T07:19:35.313Z,6.60
2018-06-14T07:22:02.472Z,6.33
2018-06-14T07:24:29.637Z,6.63
2018-06-14T07:26:56.764Z,6.10
2018-06-14T07:29:23.918Z,5.20
2018-06-14T07:31:51.077Z,4.97
2018-06-14T07:34:18.292Z,5.10
2018-06-14T07:36:45.390Z,4.83
2018-06-14T07:39:12.836Z,5.10
2018-06-14T07:41:40.040Z,5.30
2018-06-14T07:44:07.153Z,4.20
2018-06-14T07:46:34.473Z,4.50
2018-06-14T07:49:02.133Z,4.60
2018-06-14T07:51:29.501Z,5.37
2018-06-14T07:53:56.624Z,4.20
2018-06-14T07:56:23.916Z,4.83
2018-06-14T07:58:51.085Z,5.27
2018-06-14T08:01:18.260Z,4.17
2018-06-14T08:03:45.372Z,3.93
2018-06-14T08:06:12.505Z,4.20
2018-06-14T08:08:39.656Z,3.80
2018-06-14T08:11:06.818Z,4.43
2018-06-14T08:13:34.016Z,4.00
2018-06-14T08:16:01.140Z,4.30
2018-06-14T08:18:28.329Z,4.60
2018-06-14T08:20:55.474Z,3.60
2018-06-14T08:23:22.672Z,3.93
2018-06-14T08:25:49.824Z,3.90
2018-06-14T08:28:17.040Z,3.60
2018-06-14T08:30:44.189Z,4.17
2018-06-14T08:33:11.372Z,3.47
2018-06-14T08:35:38.505Z,3.60
2018-06-14T08:38:05.739Z,4.13
2018-06-14T08:40:32.896Z,4.00
2018-06-14T08:43:00.084Z,3.93
2018-06-14T08:45:27.273Z,4.60
2018-06-14T08:47:54.413Z,3.43
2018-06-14T08:50:21.628Z,4.17
2018-06-14T08:52:48.821Z,4.27
2018-06-14T08:55:15.983Z,4.27
2018-06-14T08:57:43.150Z,4.10
2018-06-14T09:00:10.359Z,3.67
2018-06-14T09:02:37.528Z,4.07
2018-06-14T09:05:04.804Z,3.53
2018-06-14T09:07:31.958Z,3.50
2018-06-14T09:09:59.108Z,3.23
2018-06-14T09:12:26.308Z,3.67
2018-06-14T09:14:53.543Z,3.33
2018-06-14T09:17:20.713Z,3.47
2018-06-14T09:19:47.812Z,4.10
2018-06-14T09:22:14.927Z,3.30
2018-06-14T09:24:42.062Z,3.80
2018-06-14T09:27:09.222Z,3.70
2018-06-14T09:29:36.419Z,4.47
2018-06-14T09:32:03.567Z,4.27
2018-06-14T09:34:30.761Z,3.20
2018-06-14T09:36:57.879Z,3.27
2018-06-14T09:39:25.024Z,4.20
2018-06-14T09:41:52.201Z,3.10
2018-06-14T09:44:19.336Z,3.53
2018-06-14T09:46:46.638Z,3.13
2018-06-14T09:49:15.733Z,3.50
2018-06-14T09:51:44.139Z,3.20
2018-06-14T09:54:11.508Z,2.90
2018-06-14T09:56:38.946Z,3.60
2018-06-14T09:59:06.255Z,2.90
2018-06-14T10:01:33.384Z,3.23
2018-06-14T10:04:00.490Z,3.87
2018-06-14T10:06:27.712Z,2.70
2018-06-14T10:08:54.861Z,3.63
2018-06-14T10:11:21.983Z,3.57
2018-06-14T10:13:49.137Z,3.30
2018-06-14T10:16:16.335Z,3.67
2018-06-14T10:18:43.466Z,2.63
2018-06-14T10:21:10.971Z,3.13
2018-06-14T10:23:38.740Z,4.23
2018-06-14T10:26:05.937Z,3.70
2018-06-14T10:28:33.084Z,4.10
2018-06-14T10:31:00.615Z,4.13
2018-06-14T10:33:27.791Z,5.80
2018-06-14T10:35:55.206Z,4.63
2018-06-14T10:38:22.327Z,4.37
2018-06-14T10:40:49.453Z,3.70
2018-06-14T10:43:16.641Z,4.10
2018-06-14T10:45:43.856Z,3.07
2018-06-14T10:48:11.048Z,3.73
2018-06-14T10:50:38.190Z,4.27
2018-06-14T10:53:05.356Z,3.67
2018-06-14T10:55:32.478Z,3.73
2018-06-14T10:57:59.752Z,3.97
2018-06-14T11:00:26.929Z,3.70
2018-06-14T11:02:54.116Z,3.30
2018-06-14T11:05:21.294Z,4.40
2018-06-14T11:07:48.656Z,3.50
2018-06-14T11:10:15.788Z,3.60
2018-06-14T11:12:42.888Z,3.50
2018-06-14T11:15:10.068Z,4.30
2018-06-14T11:17:37.272Z,4.13
2018-06-14T11:20:04.613Z,4.00
2018-06-14T11:22:31.788Z,4.20
2018-06-14T11:25:00.814Z,3.07
2018-06-14T11:27:28.137Z,3.30
2018-06-14T11:29:55.428Z,3.60
2018-06-14T11:32:22.617Z,3.00
2018-06-14T11:34:49.839Z,3.57
2018-06-14T11:37:16.981Z,2.97
2018-06-14T11:39:44.089Z,3.17
2018-06-14T11:42:11.231Z,3.27
2018-06-14T11:44:38.389Z,2.67
2018-06-14T11:47:05.569Z,3.23
2018-06-14T11:49:32.721Z,2.97
2018-06-14T11:51:59.921Z,3.20
2018-06-14T11:54:27.460Z,2.90
2018-06-14T11:56:54.578Z,2.87
2018-06-14T11:59:21.690Z,3.27
2018-06-14T12:01:48.906Z,2.63
2018-06-14T12:04:16.048Z,3.50
2018-06-14T12:06:43.132Z,2.30
2018-06-14T12:09:10.322Z,3.27
2018-06-14T12:11:37.501Z,2.80
2018-06-14T12:14:04.692Z,2.47
2018-06-14T12:16:31.852Z,2.90
2018-06-14T12:18:59.047Z,2.87
2018-06-14T12:21:26.287Z,3.30
2018-06-14T12:23:53.670Z,2.33
2018-06-14T12:26:20.826Z,3.00
2018-06-14T12:28:47.959Z,2.70
2018-06-14T12:31:15.461Z,2.67
2018-06-14T12:33:42.593Z,1.80
2018-06-14T12:36:09.732Z,2.57
2018-06-14T12:38:36.892Z,3.20
2018-06-14T12:41:04.089Z,2.57
2018-06-14T12:43:31.267Z,2.90
2018-06-14T12:45:58.427Z,2.50
2018-06-14T12:48:25.563Z,2.80
2018-06-14T12:50:52.705Z,2.67
2018-06-14T12:53:19.857Z,2.60
2018-06-14T12:55:46.985Z,2.50
2018-06-14T12:58:14.204Z,2.27
2018-06-14T13:00:41.353Z,2.10
2018-06-14T13:03:08.521Z,2.53
2018-06-14T13:05:35.652Z,2.60
2018-06-14T13:08:02.800Z,2.50
2018-06-14T13:10:29.997Z,2.40
2018-06-14T13:12:57.304Z,2.30
2018-06-14T13:15:24.517Z,2.57
2018-06-14T13:17:51.687Z,2.17
2018-06-14T13:20:18.822Z,3.40
2018-06-14T13:22:45.987Z,2.70
2018-06-14T13:25:13.115Z,2.53
2018-06-14T13:27:40.307Z,2.30
2018-06-14T13:30:07.464Z,2.63
2018-06-14T13:32:34.654Z,2.87
2018-06-14T13:35:01.774Z,2.70
2018-06-14T13:37:28.983Z,2.87
2018-06-14T13:39:56.128Z,3.40
2018-06-14T13:42:23.273Z,2.57
2018-06-14T13:44:50.391Z,2.30
2018-06-14T13:47:17.520Z,2.30
2018-06-14T13:49:44.764Z,2.70
2018-06-14T13:52:11.923Z,3.20
2018-06-14T13:54:39.120Z,2.10
2018-06-14T13:57:06.330Z,2.83
2018-06-14T13:59:33.457Z,2.93
2018-06-14T14:02:00.629Z,2.27
2018-06-14T14:04:27.780Z,2.50
2018-06-14T14:07:00.632Z,3.03
2018-06-14T14:09:27.775Z,2.03
2018-06-14T14:11:54.930Z,2.00
2018-06-14T14:14:22.089Z,2.13
2018-06-14T14:16:49.263Z,2.10
2018-06-14T14:19:16.439Z,2.63
2018-06-14T14:21:43.591Z,2.50
2018-06-14T14:24:10.733Z,2.47
2018-06-14T14:26:38.018Z,2.50
2018-06-14T14:29:05.144Z,2.40
2018-06-14T14:31:32.313Z,2.20
2018-06-14T14:33:59.442Z,2.10
2018-06-14T14:36:26.632Z,2.30
2018-06-14T14:38:53.769Z,2.60
2018-06-14T14:41:20.922Z,2.47
2018-06-14T14:43:48.189Z,2.40
2018-06-14T14:46:15.388Z,2.47
2018-06-14T14:48:44.276Z,2.27
2018-06-14T14:51:11.444Z,2.00
2018-06-14T14:53:38.662Z,2.30
2018-06-14T14:56:05.823Z,2.73
2018-06-14T14:58:33.124Z,1.80
2018-06-14T15:01:00.228Z,2.67
2018-06-14T15:03:27.417Z,1.83
2018-06-14T15:05:54.683Z,2.53
2018-06-14T15:08:22.067Z,2.73
2018-06-14T15:10:49.245Z,2.53
2018-06-14T15:13:16.423Z,2.20
2018-06-14T15:15:43.625Z,2.43
2018-06-14T15:18:10.796Z,2.57
2018-06-14T15:20:37.937Z,2.43
2018-06-14T15:23:05.219Z,2.07
2018-06-14T15:25:32.428Z,2.23
2018-06-14T15:27:59.577Z,2.27
2018-06-14T15:30:26.838Z,2.10
2018-06-14T15:32:54.078Z,2.13
2018-06-14T15:35:21.229Z,2.33
2018-06-14T15:37:48.402Z,2.53
2018-06-14T15:40:15.609Z,2.30
2018-06-14T15:42:42.861Z,2.20
2018-06-14T15:45:09.985Z,2.37
2018-06-14T15:47:37.159Z,2.43
2018-06-14T15:50:04.493Z,3.17
2018-06-14T15:52:31.583Z,2.97
2018-06-14T15:55:10.306Z,3.67
2018-06-14T15:57:37.478Z,2.90
2018-06-14T16:00:05.029Z,3.03
2018-06-14T16:02:32.200Z,2.27
2018-06-14T16:04:59.545Z,4.17
2018-06-14T16:07:26.732Z,2.60
2018-06-14T16:09:53.875Z,2.63
2018-06-14T16:12:21.021Z,2.37
2018-06-14T16:14:48.140Z,2.70
2018-06-14T16:17:15.337Z,2.70
2018-06-14T16:19:42.496Z,2.50
2018-06-14T16:22:09.620Z,3.63
2018-06-14T16:24:36.816Z,2.40
2018-06-14T16:27:03.950Z,2.63
2018-06-14T16:29:31.126Z,2.63
2018-06-14T16:31:58.296Z,2.57
2018-06-14T16:34:25.451Z,2.10
2018-06-14T16:36:52.585Z,2.33
2018-06-14T16:39:20.136Z,2.50
2018-06-14T16:41:47.282Z,2.63
2018-06-14T16:44:14.437Z,2.40
2018-06-14T16:46:41.579Z,2.87
2018-06-14T16:49:08.717Z,2.77
2018-06-14T16:51:36.123Z,2.60
2018-06-14T16:54:03.315Z,2.67
2018-06-14T16:56:30.493Z,2.57
2018-06-14T16:58:57.719Z,2.47
2018-06-14T17:01:24.976Z,2.67
2018-06-14T17:03:52.190Z,2.50
2018-06-14T17:06:19.443Z,2.90
2018-06-14T17:08:46.874Z,2.30
2018-06-14T17:11:14.000Z,2.53
2018-06-14T17:13:41.208Z,2.90
2018-06-14T17:16:08.478Z,3.10
2018-06-14T17:18:35.632Z,2.60
2018-06-14T17:21:02.814Z,2.40
2018-06-14T17:23:29.987Z,2.80
2018-06-14T17:25:57.241Z,2.40
2018-06-14T17:28:24.475Z,3.27
2018-06-14T17:30:51.712Z,2.30
2018-06-14T17:33:18.876Z,2.53
2018-06-14T17:35:46.033Z,2.70
2018-06-14T17:38:13.237Z,2.30
2018-06-14T17:40:40.621Z,3.10
2018-06-14T17:43:07.772Z,2.90
2018-06-14T17:45:34.980Z,2.63
2018-06-14T17:48:02.202Z,2.40
2018-06-14T17:50:29.340Z,3.10
2018-06-14T17:52:56.524Z,2.80
2018-06-14T17:55:23.681Z,2.87
2018-06-14T17:57:50.862Z,3.30
2018-06-14T18:00:18.509Z,2.53
2018-06-14T18:02:45.741Z,2.57
2018-06-14T18:05:12.917Z,3.00
2018-06-14T18:07:40.430Z,2.50
2018-06-14T18:10:07.393Z,3.10
2018-06-14T18:12:34.528Z,2.90
2018-06-14T18:15:01.705Z,2.67
2018-06-14T18:17:28.896Z,2.43
2018-06-14T18:19:56.079Z,3.30
2018-06-14T18:22:23.243Z,2.53
2018-06-14T18:24:50.399Z,2.30
2018-06-14T18:27:17.605Z,2.73
2018-06-14T18:29:44.798Z,2.77
2018-06-14T18:32:11.909Z,2.57
2018-06-14T18:34:39.054Z,2.83
2018-06-14T18:37:06.216Z,2.60
2018-06-14T18:39:33.416Z,2.63
2018-06-14T18:42:00.602Z,2.90
2018-06-14T18:44:27.793Z,2.90
2018-06-14T18:46:54.964Z,2.30
2018-06-14T18:49:22.168Z,3.03
2018-06-14T18:51:49.345Z,3.20
2018-06-14T18:54:16.512Z,2.90
2018-06-14T18:56:43.727Z,2.60
2018-06-14T18:59:10.869Z,2.57
2018-06-14T19:01:38.080Z,2.47
2018-06-14T19:04:05.405Z,3.53
2018-06-14T19:06:32.576Z,2.90
2018-06-14T19:08:59.750Z,3.03
2018-06-14T19:11:26.941Z,2.47
2018-06-14T19:13:54.136Z,2.80
2018-06-14T19:16:21.321Z,3.20
2018-06-14T19:18:49.435Z,2.90
2018-06-14T19:21:16.624Z,3.00
2018-06-14T19:23:43.766Z,2.97
2018-06-14T19:26:10.955Z,3.10
2018-06-14T19:28:38.209Z,3.03
2018-06-14T19:31:05.401Z,3.17
2018-06-14T19:33:32.928Z,3.03
2018-06-14T19:36:00.127Z,2.97
2018-06-14T19:38:27.531Z,2.80
2018-06-14T19:40:54.654Z,3.00
2018-06-14T19:43:21.844Z,3.10
2018-06-14T19:45:49.044Z,2.60
2018-06-14T19:48:16.274Z,3.03
2018-06-14T19:50:43.477Z,2.93
2018-06-14T19:53:10.765Z,3.00
2018-06-14T19:55:38.028Z,2.80
2018-06-14T19:58:05.253Z,3.20
2018-06-14T20:00:32.429Z,2.97
2018-06-14T20:02:59.629Z,2.73
2018-06-14T20:05:26.838Z,3.60
2018-06-14T20:07:54.028Z,3.63
2018-06-14T20:10:21.247Z,3.30
2018-06-14T20:12:48.376Z,3.47
2018-06-14T20:15:15.531Z,3.60
2018-06-14T20:17:42.754Z,3.10
2018-06-14T20:20:10.261Z,4.20
2018-06-14T20:22:37.467Z,3.23
2018-06-14T20:25:04.876Z,3.60
2018-06-14T20:27:32.111Z,3.30
2018-06-14T20:29:59.300Z,3.80
2018-06-14T20:32:26.689Z,4.47
2018-06-14T20:34:53.801Z,2.93
2018-06-14T20:37:21.080Z,3.10
2018-06-14T20:39:48.253Z,3.60
2018-06-14T20:42:15.408Z,3.57
2018-06-14T20:44:42.559Z,3.90
2018-06-14T20:47:09.716Z,3.83
2018-06-14T20:49:38.257Z,3.80
2018-06-14T20:52:05.438Z,3.30
2018-06-14T20:54:32.614Z,3.53
2018-06-14T20:56:59.824Z,3.97
2018-06-14T20:59:26.930Z,3.63
2018-06-14T21:01:54.085Z,3.23
2018-06-14T21:04:21.236Z,4.17
2018-06-14T21:06:48.389Z,3.83
2018-06-14T21:09:15.549Z,4.23
2018-06-14T21:11:42.776Z,3.80
2018-06-14T21:14:09.926Z,3.37
2018-06-14T21:16:37.300Z,5.90
2018-06-14T21:19:04.546Z,4.43
2018-06-14T21:21:31.698Z,4.53
2018-06-14T21:23:59.168Z,4.00
2018-06-14T21:26:26.329Z,3.97
2018-06-14T21:28:53.619Z,4.43
2018-06-14T21:31:20.766Z,3.93
2018-06-14T21:33:47.943Z,3.50
2018-06-14T21:36:15.072Z,4.83
2018-06-14T21:38:42.136Z,3.77
2018-06-14T21:41:09.280Z,3.90
2018-06-14T21:43:36.384Z,4.00
2018-06-14T21:46:03.957Z,4.30
2018-06-14T21:48:31.096Z,4.17
2018-06-14T21:50:58.229Z,3.67
2018-06-14T21:53:25.377Z,4.40
2018-06-14T21:55:52.562Z,3.80
2018-06-14T21:58:19.698Z,4.00
2018-06-14T22:00:46.866Z,4.30
2018-06-14T22:03:19.798Z,4.43
2018-06-14T22:05:46.948Z,4.00
2018-06-14T22:08:14.141Z,3.70
2018-06-14T22:10:41.310Z,4.40
2018-06-14T22:13:08.441Z,4.77
2018-06-14T22:15:35.573Z,4.20
2018-06-14T22:18:02.753Z,3.90
2018-06-14T22:20:29.924Z,4.33
2018-06-14T22:22:57.091Z,3.80
2018-06-14T22:25:24.269Z,3.90
2018-06-14T22:27:51.399Z,4.63
2018-06-14T22:30:18.567Z,4.17
2018-06-14T22:32:46.136Z,3.43
2018-06-14T22:35:22.892Z,4.63
2018-06-14T22:37:50.005Z,4.00
2018-06-14T22:40:17.160Z,4.77
2018-06-14T22:42:44.304Z,4.37
2018-06-14T22:45:11.380Z,3.73
2018-06-14T22:47:38.487Z,4.30
2018-06-14T22:50:05.642Z,3.30
2018-06-14T22:52:52.101Z,4.47
2018-06-14T22:55:20.536Z,4.77
2018-06-14T22:57:48.015Z,4.43
2018-06-14T23:01:22.467Z,4.00
2018-06-14T23:03:49.656Z,5.40
2018-06-14T23:06:16.736Z,4.10
2018-06-14T23:08:43.861Z,4.83
2018-06-14T23:11:17.180Z,4.83
2018-06-14T23:13:44.329Z,4.10
2018-06-14T23:16:11.464Z,4.63
2018-06-14T23:18:38.584Z,4.60
2018-06-14T23:21:05.756Z,4.03
2018-06-14T23:23:32.911Z,4.57
2018-06-14T23:26:00.077Z,4.33
2018-06-14T23:28:27.222Z,4.03
2018-06-14T23:30:54.301Z,3.93
2018-06-14T23:33:21.403Z,4.63
2018-06-14T23:35:48.549Z,5.30
2018-06-14T23:38:15.644Z,4.70
2018-06-14T23:40:42.859Z,4.23
2018-06-14T23:43:10.019Z,4.53
2018-06-14T23:45:37.188Z,4.13
2018-06-14T23:48:04.372Z,4.03
2018-06-14T23:50:31.512Z,4.20
2018-06-14T23:52:58.703Z,5.50
2018-06-14T23:55:25.868Z,5.20
2018-06-14T23:57:52.958Z,4.80
